createdAt,value
2018-10-05T00:03:12.203Z,10.60
2018-10-05T00:07:14.988Z,10.50
2018-10-05T00:11:17.718Z,10.50
2018-10-05T00:15:20.492Z,10.40
2018-10-05T00:19:23.243Z,10.40
2018-10-05T00:23:26.138Z,10.40
2018-10-05T00:27:28.899Z,10.30
2018-10-05T00:31:31.736Z,10.30
2018-10-05T00:35:34.590Z,10.30
2018-10-05T00:39:37.353Z,10.30
2018-10-05T00:43:40.183Z,10.20
2018-10-05T00:47:43.028Z,10.20
2018-10-05T00:51:45.840Z,10.10
2018-10-05T00:55:48.684Z,10.10
2018-10-05T00:59:51.508Z,10.10
2018-10-05T01:03:54.231Z,10.00
2018-10-05T01:07:57.073Z,10.00
2018-10-05T01:11:59.839Z,10.00
2018-10-05T01:16:02.671Z,10.00
2018-10-05T01:20:05.458Z,9.90
2018-10-05T01:24:08.247Z,9.90
2018-10-05T01:28:11.114Z,9.90
2018-10-05T01:32:13.895Z,9.80
2018-10-05T01:36:16.683Z,9.80
2018-10-05T01:40:19.433Z,9.80
2018-10-05T01:44:22.157Z,9.80
2018-10-05T01:48:25.110Z,9.70
2018-10-05T01:52:27.827Z,9.70
2018-10-05T01:56:31.034Z,9.70
2018-10-05T02:00:33.733Z,9.70
2018-10-05T02:04:36.463Z,9.60
2018-10-05T02:08:39.203Z,9.50
2018-10-05T02:12:42.008Z,9.40
2018-10-05T02:16:44.758Z,9.50
2018-10-05T02:20:47.493Z,9.40
2018-10-05T02:24:50.248Z,9.40
2018-10-05T02:28:52.949Z,9.40
2018-10-05T02:32:55.712Z,9.40
2018-10-05T02:36:58.547Z,9.30
2018-10-05T02:41:01.620Z,9.30
2018-10-05T02:45:04.887Z,9.20
2018-10-05T02:49:07.915Z,9.20
2018-10-05T02:53:10.652Z,9.20
2018-10-05T02:57:13.472Z,9.20
2018-10-05T03:01:27.527Z,9.10
2018-10-05T03:05:30.338Z,9.10
2018-10-05T03:09:33.107Z,9.00
2018-10-05T03:13:35.863Z,8.90
2018-10-05T03:17:38.617Z,8.90
2018-10-05T03:21:41.374Z,8.90
2018-10-05T03:25:44.087Z,8.90
2018-10-05T03:29:46.924Z,8.80
2018-10-05T03:33:49.756Z,8.80
2018-10-05T03:37:52.901Z,8.80
2018-10-05T03:41:55.813Z,8.80
2018-10-05T03:45:58.733Z,8.70
2018-10-05T03:50:01.641Z,8.70
2018-10-05T03:54:04.653Z,8.60
2018-10-05T03:58:07.502Z,8.60
2018-10-05T04:02:10.261Z,8.50
2018-10-05T04:06:13.148Z,8.50
2018-10-05T04:10:15.918Z,8.40
2018-10-05T04:14:18.762Z,8.40
2018-10-05T04:18:21.508Z,8.40
2018-10-05T04:22:28.997Z,8.40
2018-10-05T04:26:31.737Z,8.40
2018-10-05T04:30:34.483Z,8.40
2018-10-05T04:34:37.265Z,8.40
2018-10-05T04:38:40.011Z,8.40
2018-10-05T04:42:42.803Z,8.30
2018-10-05T04:46:45.533Z,8.40
2018-10-05T04:50:48.328Z,8.30
2018-10-05T04:54:51.030Z,8.30
2018-10-05T04:58:53.728Z,8.40
2018-10-05T05:02:56.484Z,8.40
2018-10-05T05:06:59.448Z,8.30
2018-10-05T05:11:02.206Z,8.30
2018-10-05T05:15:05.883Z,8.30
2018-10-05T05:19:08.714Z,8.30
2018-10-05T05:23:11.641Z,8.30
2018-10-05T05:27:14.482Z,8.30
2018-10-05T05:31:17.193Z,8.30
2018-10-05T05:35:20.040Z,8.30
2018-10-05T05:39:22.800Z,8.30
2018-10-05T05:43:25.561Z,8.30
2018-10-05T05:47:28.302Z,8.30
2018-10-05T05:51:31.022Z,8.30
2018-10-05T05:55:33.700Z,8.30
2018-10-05T05:59:36.395Z,8.30
2018-10-05T06:03:39.283Z,8.40
2018-10-05T06:07:42.173Z,8.40
2018-10-05T06:11:44.961Z,8.40
2018-10-05T06:15:47.707Z,8.40
2018-10-05T06:19:50.473Z,8.40
2018-10-05T06:23:53.297Z,8.90
2018-10-05T06:27:56.095Z,9.50
2018-10-05T06:31:58.851Z,10.30
2018-10-05T06:36:01.812Z,11.00
2018-10-05T06:40:04.760Z,11.60
2018-10-05T06:44:07.670Z,12.00
2018-10-05T06:48:10.464Z,12.60
2018-10-05T06:52:13.209Z,13.00
2018-10-05T06:56:16.035Z,13.10
2018-10-05T07:00:18.864Z,13.20
2018-10-05T07:04:21.789Z,13.40
2018-10-05T07:08:24.683Z,13.50
2018-10-05T07:12:27.369Z,13.80
2018-10-05T07:16:30.294Z,13.90
2018-10-05T07:20:33.012Z,14.10
2018-10-05T07:24:42.482Z,14.70
2018-10-05T07:28:45.298Z,15.40
2018-10-05T07:32:48.091Z,15.70
2018-10-05T07:36:50.942Z,15.80
2018-10-05T07:40:53.657Z,15.70
2018-10-05T07:44:56.433Z,16.10
2018-10-05T07:48:59.211Z,16.50
2018-10-05T07:53:02.217Z,16.80
2018-10-05T07:57:04.973Z,16.20
2018-10-05T08:01:07.695Z,16.40
2018-10-05T08:05:10.420Z,16.90
2018-10-05T08:09:13.219Z,17.70
2018-10-05T08:13:16.025Z,17.80
2018-10-05T08:17:18.870Z,17.70
2018-10-05T08:21:21.603Z,18.00
2018-10-05T08:25:24.434Z,18.90
2018-10-05T08:29:27.376Z,19.70
2018-10-05T08:33:30.191Z,19.80
2018-10-05T08:37:32.916Z,19.20
2018-10-05T08:41:35.699Z,19.50
2018-10-05T08:45:38.607Z,19.90
2018-10-05T08:49:42.156Z,20.30
2018-10-05T08:53:44.940Z,19.60
2018-10-05T08:57:47.762Z,19.30
2018-10-05T09:01:50.562Z,19.30
2018-10-05T09:05:53.411Z,20.40
2018-10-05T09:09:56.091Z,20.70
2018-10-05T09:13:58.873Z,20.60
2018-10-05T09:18:01.853Z,20.60
2018-10-05T09:22:04.639Z,20.90
2018-10-05T09:26:07.420Z,21.40
2018-10-05T09:30:10.406Z,22.10
2018-10-05T09:34:13.232Z,23.00
2018-10-05T09:38:15.976Z,22.90
2018-10-05T09:42:18.668Z,22.20
2018-10-05T09:46:21.394Z,21.30
2018-10-05T09:50:24.801Z,21.20
2018-10-05T09:54:27.691Z,21.70
2018-10-05T09:58:30.439Z,22.60
2018-10-05T10:02:38.892Z,22.40
2018-10-05T10:06:41.616Z,22.50
2018-10-05T10:10:44.428Z,22.40
2018-10-05T10:14:47.187Z,23.00
2018-10-05T10:18:49.909Z,23.70
2018-10-05T10:22:52.835Z,23.70
2018-10-05T10:26:55.654Z,22.70
2018-10-05T10:30:58.480Z,23.00
2018-10-05T10:35:01.252Z,22.70
2018-10-05T10:39:06.057Z,23.90
2018-10-05T10:43:08.787Z,24.60
2018-10-05T10:47:11.728Z,24.10
2018-10-05T10:51:14.430Z,24.60
2018-10-05T10:55:18.587Z,25.10
2018-10-05T10:59:21.460Z,25.50
2018-10-05T11:03:24.247Z,25.50
2018-10-05T11:07:26.972Z,24.80
2018-10-05T11:11:29.741Z,25.40
2018-10-05T11:15:32.464Z,25.90
2018-10-05T11:19:35.168Z,25.90
2018-10-05T11:23:37.985Z,25.50
2018-10-05T11:27:40.683Z,25.30
2018-10-05T11:31:43.437Z,25.10
2018-10-05T11:35:46.235Z,24.90
2018-10-05T11:39:49.034Z,24.70
2018-10-05T11:43:53.016Z,24.80
2018-10-05T11:47:55.788Z,25.40
2018-10-05T11:51:58.510Z,25.60
2018-10-05T11:56:01.284Z,25.20
2018-10-05T12:00:04.342Z,25.50
2018-10-05T12:04:07.139Z,25.90
2018-10-05T12:08:09.924Z,25.70
2018-10-05T12:12:12.637Z,26.40
2018-10-05T12:20:02.447Z,26.20
2018-10-05T12:24:05.092Z,26.10
2018-10-05T12:47:54.423Z,25.70
2018-10-05T12:52:25.811Z,26.00
2018-10-05T13:04:08.807Z,26.30
2018-10-05T13:08:11.525Z,25.30
2018-10-05T13:12:14.211Z,25.40
2018-10-05T13:16:17.019Z,25.70
2018-10-05T13:20:19.769Z,26.30
2018-10-05T13:24:22.522Z,25.70
2018-10-05T13:28:25.235Z,25.70
2018-10-05T13:32:27.956Z,25.80
2018-10-05T13:36:30.755Z,24.90
2018-10-05T13:40:33.459Z,25.20
2018-10-05T14:43:32.681Z,24.50
2018-10-05T14:51:50.535Z,24.40
2018-10-05T14:55:54.409Z,24.50
2018-10-05T15:20:13.545Z,23.70
2018-10-05T15:24:16.304Z,23.40
2018-10-05T15:28:19.100Z,23.40
2018-10-05T15:32:21.912Z,23.30
2018-10-05T15:36:24.786Z,23.30
2018-10-05T15:40:27.648Z,23.10
2018-10-05T15:44:30.376Z,23.00
2018-10-05T15:48:34.124Z,22.90
2018-10-05T15:52:37.102Z,22.80
2018-10-05T15:56:40.072Z,22.70
2018-10-05T16:00:42.956Z,22.70
2018-10-05T16:04:45.727Z,22.50
2018-10-05T16:08:48.449Z,22.40
2018-10-05T16:12:51.400Z,22.30
2018-10-05T16:16:54.193Z,22.10
2018-10-05T16:20:57.003Z,22.10
2018-10-05T16:24:59.867Z,21.90
2018-10-05T16:29:02.673Z,21.70
2018-10-05T16:33:05.587Z,21.50
2018-10-05T16:37:09.487Z,21.20
2018-10-05T16:41:12.769Z,20.90
2018-10-05T16:45:16.184Z,20.70
2018-10-05T16:49:19.059Z,20.50
2018-10-05T16:53:21.891Z,20.30
2018-10-05T16:57:24.887Z,20.00
2018-10-05T17:01:27.638Z,19.70
2018-10-05T17:05:31.517Z,19.40
2018-10-05T17:09:34.386Z,19.10
2018-10-05T17:13:37.203Z,18.80
2018-10-05T17:17:40.092Z,18.60
2018-10-05T17:21:43.973Z,18.40
2018-10-05T17:25:46.922Z,18.20
2018-10-05T17:29:49.561Z,18.00
2018-10-05T17:33:52.656Z,17.80
2018-10-05T17:37:55.587Z,17.60
2018-10-05T17:41:58.440Z,17.40
2018-10-05T17:46:01.402Z,17.30
2018-10-05T17:50:04.845Z,17.20
2018-10-05T17:54:07.621Z,16.90
2018-10-05T17:58:10.500Z,16.80
2018-10-05T18:02:13.294Z,16.70
2018-10-05T18:06:16.254Z,16.60
2018-10-05T18:10:18.985Z,16.40
2018-10-05T18:14:21.935Z,16.30
2018-10-05T18:18:24.694Z,16.20
2018-10-05T18:22:27.474Z,16.00
2018-10-05T18:26:30.296Z,15.90
2018-10-05T18:30:33.518Z,15.70
2018-10-05T18:34:36.397Z,15.60
2018-10-05T18:38:39.292Z,15.50
2018-10-05T18:42:42.110Z,15.40
2018-10-05T18:46:44.966Z,15.30
2018-10-05T18:50:47.995Z,15.20
2018-10-05T18:54:50.729Z,15.00
2018-10-05T18:58:53.653Z,15.00
2018-10-05T19:02:56.427Z,14.80
2018-10-05T19:06:59.648Z,14.80
2018-10-05T19:11:02.628Z,14.80
2018-10-05T19:15:05.475Z,14.70
2018-10-05T19:19:08.328Z,14.70
2018-10-05T19:23:11.197Z,14.70
2018-10-05T19:27:14.227Z,14.60
2018-10-05T19:31:17.370Z,14.60
2018-10-05T19:35:20.313Z,14.50
2018-10-05T19:39:23.177Z,14.50
2018-10-05T19:43:26.187Z,14.40
2018-10-05T19:47:29.355Z,14.30
2018-10-05T19:51:32.115Z,14.30
2018-10-05T19:55:34.935Z,14.20
2018-10-05T19:59:37.727Z,14.10
2018-10-05T20:03:40.920Z,14.10
2018-10-05T20:07:43.621Z,14.00
2018-10-05T20:11:46.441Z,13.90
2018-10-05T20:15:49.249Z,13.90
2018-10-05T20:19:51.999Z,13.80
2018-10-05T20:23:54.875Z,13.70
2018-10-05T20:27:58.030Z,13.60
2018-10-05T20:32:01.178Z,13.50
2018-10-05T20:36:04.461Z,13.40
2018-10-05T20:40:08.263Z,13.40
2018-10-05T20:44:10.988Z,13.30
2018-10-05T20:48:13.922Z,13.30
2018-10-05T20:52:18.835Z,13.20
2018-10-05T20:56:21.755Z,13.10
2018-10-05T21:00:25.806Z,13.10
2018-10-05T21:04:30.772Z,13.10
2018-10-05T21:08:39.573Z,13.00
2018-10-05T21:12:42.403Z,13.00
2018-10-05T21:16:45.259Z,13.00
2018-10-05T21:20:51.632Z,12.90
2018-10-05T21:24:54.439Z,12.90
2018-10-05T21:28:57.530Z,12.80
2018-10-05T21:33:00.641Z,12.70
2018-10-05T21:37:04.419Z,12.70
2018-10-05T21:41:07.376Z,12.60
2018-10-05T21:45:10.181Z,12.60
2018-10-05T21:49:13.081Z,12.50
2018-10-05T21:53:16.145Z,12.50
2018-10-05T21:57:19.068Z,12.40
2018-10-05T22:01:21.857Z,12.40
2018-10-05T22:05:24.697Z,12.30
2018-10-05T22:09:27.567Z,12.40
2018-10-05T22:13:30.329Z,12.30
2018-10-05T22:17:34.113Z,12.30
2018-10-05T22:21:37.008Z,12.30
2018-10-05T22:25:40.058Z,12.30
2018-10-05T22:29:42.830Z,12.20
2018-10-05T22:33:45.544Z,12.30
2018-10-05T22:37:48.461Z,12.20
2018-10-05T22:41:51.242Z,12.30
2018-10-05T22:45:54.164Z,12.20
2018-10-05T22:49:56.948Z,12.20
2018-10-05T22:53:59.852Z,12.10
2018-10-05T22:58:02.752Z,12.10
2018-10-05T23:02:06.094Z,12.10
2018-10-05T23:06:09.426Z,12.10
2018-10-05T23:10:12.636Z,12.10
2018-10-05T23:14:16.063Z,12.00
2018-10-05T23:18:19.655Z,11.90
2018-10-05T23:22:22.581Z,11.90
2018-10-05T23:26:25.379Z,11.80
2018-10-05T23:30:28.203Z,11.80
2018-10-05T23:34:31.101Z,11.80
2018-10-05T23:38:34.258Z,11.70
2018-10-05T23:42:37.244Z,11.60
2018-10-05T23:46:40.355Z,11.70
2018-10-05T23:50:43.204Z,11.60
2018-10-05T23:54:47.216Z,11.70
2018-10-05T23:58:49.996Z,11.60
